sensor_id;sensor_type;location;lat;lon;timestamp;P1;durP1;ratioP1;P2;durP2;ratioP2
17330;SDS011;8783;52.448;4.638;2023-11-22T00:00:40;3.58;;;1.60;;
17330;SDS011;8783;52.448;4.638;2023-11-22T00:03:05;3.45;;;1.70;;
17330;SDS011;8783;52.448;4.638;2023-11-22T00:05:31;2.30;;;1.90;;
17330;SDS011;8783;52.448;4.638;2023-11-22T00:07:57;3.63;;;2.03;;
17330;SDS011;8783;52.448;4.638;2023-11-22T00:10:23;3.40;;;1.70;;
17330;SDS011;8783;52.448;4.638;2023-11-22T00:12:48;2.47;;;1.73;;
17330;SDS011;8783;52.448;4.638;2023-11-22T00:15:15;3.17;;;1.90;;
17330;SDS011;8783;52.448;4.638;2023-11-22T00:17:46;2.70;;;1.70;;
17330;SDS011;8783;52.448;4.638;2023-11-22T00:20:15;2.95;;;1.70;;
17330;SDS011;8783;52.448;4.638;2023-11-22T00:22:42;2.72;;;1.70;;
17330;SDS011;8783;52.448;4.638;2023-11-22T00:25:10;2.22;;;1.60;;
17330;SDS011;8783;52.448;4.638;2023-11-22T00:27:38;5.20;;;1.85;;
17330;SDS011;8783;52.448;4.638;2023-11-22T00:30:04;2.35;;;1.60;;
17330;SDS011;8783;52.448;4.638;2023-11-22T00:32:30;2.22;;;1.55;;
17330;SDS011;8783;52.448;4.638;2023-11-22T00:34:56;3.92;;;1.45;;
17330;SDS011;8783;52.448;4.638;2023-11-22T00:37:22;2.70;;;1.40;;
17330;SDS011;8783;52.448;4.638;2023-11-22T00:39:48;2.05;;;1.65;;
17330;SDS011;8783;52.448;4.638;2023-11-22T00:42:13;2.22;;;1.63;;
17330;SDS011;8783;52.448;4.638;2023-11-22T00:44:39;2.83;;;1.70;;
17330;SDS011;8783;52.448;4.638;2023-11-22T00:47:05;2.35;;;1.45;;
17330;SDS011;8783;52.448;4.638;2023-11-22T00:49:31;2.50;;;1.70;;
17330;SDS011;8783;52.448;4.638;2023-11-22T00:51:57;3.53;;;1.80;;
17330;SDS011;8783;52.448;4.638;2023-11-22T00:54:23;2.75;;;1.67;;
17330;SDS011;8783;52.448;4.638;2023-11-22T00:56:50;3.53;;;1.70;;
17330;SDS011;8783;52.448;4.638;2023-11-22T00:59:15;3.08;;;1.50;;
17330;SDS011;8783;52.448;4.638;2023-11-22T01:01:41;1.70;;;1.45;;
17330;SDS011;8783;52.448;4.638;2023-11-22T01:04:07;3.03;;;1.52;;
17330;SDS011;8783;52.448;4.638;2023-11-22T01:06:33;2.28;;;1.48;;
17330;SDS011;8783;52.448;4.638;2023-11-22T01:08:59;1.92;;;1.40;;
17330;SDS011;8783;52.448;4.638;2023-11-22T01:11:25;2.33;;;1.52;;
17330;SDS011;8783;52.448;4.638;2023-11-22T01:13:51;3.45;;;1.80;;
17330;SDS011;8783;52.448;4.638;2023-11-22T01:16:16;2.05;;;1.42;;
17330;SDS011;8783;52.448;4.638;2023-11-22T01:18:42;3.38;;;1.60;;
17330;SDS011;8783;52.448;4.638;2023-11-22T01:21:08;2.38;;;1.40;;
17330;SDS011;8783;52.448;4.638;2023-11-22T01:23:34;1.90;;;1.30;;
17330;SDS011;8783;52.448;4.638;2023-11-22T01:26:00;2.28;;;1.73;;
17330;SDS011;8783;52.448;4.638;2023-11-22T01:28:29;1.75;;;1.25;;
17330;SDS011;8783;52.448;4.638;2023-11-22T01:30:59;2.15;;;1.50;;
17330;SDS011;8783;52.448;4.638;2023-11-22T01:33:25;1.88;;;1.38;;
17330;SDS011;8783;52.448;4.638;2023-11-22T01:35:52;2.97;;;1.35;;
17330;SDS011;8783;52.448;4.638;2023-11-22T01:38:18;2.17;;;1.50;;
17330;SDS011;8783;52.448;4.638;2023-11-22T01:40:44;2.15;;;1.60;;
17330;SDS011;8783;52.448;4.638;2023-11-22T01:43:17;1.85;;;1.40;;
17330;SDS011;8783;52.448;4.638;2023-11-22T01:45:44;2.00;;;1.38;;
17330;SDS011;8783;52.448;4.638;2023-11-22T01:48:10;2.53;;;1.58;;
17330;SDS011;8783;52.448;4.638;2023-11-22T01:50:40;2.58;;;1.40;;
17330;SDS011;8783;52.448;4.638;2023-11-22T01:53:07;2.33;;;1.58;;
17330;SDS011;8783;52.448;4.638;2023-11-22T01:55:37;2.35;;;1.35;;
17330;SDS011;8783;52.448;4.638;2023-11-22T01:58:04;2.53;;;1.60;;
17330;SDS011;8783;52.448;4.638;2023-11-22T02:00:32;2.20;;;1.60;;
17330;SDS011;8783;52.448;4.638;2023-11-22T02:03:10;1.85;;;1.30;;
17330;SDS011;8783;52.448;4.638;2023-11-22T02:05:39;2.00;;;1.48;;
17330;SDS011;8783;52.448;4.638;2023-11-22T02:08:07;2.28;;;1.40;;
17330;SDS011;8783;52.448;4.638;2023-11-22T02:10:35;2.22;;;1.20;;
17330;SDS011;8783;52.448;4.638;2023-11-22T02:13:02;2.25;;;1.50;;
17330;SDS011;8783;52.448;4.638;2023-11-22T02:15:33;2.15;;;1.70;;
17330;SDS011;8783;52.448;4.638;2023-11-22T02:17:59;1.50;;;1.20;;
17330;SDS011;8783;52.448;4.638;2023-11-22T02:20:25;2.65;;;1.58;;
17330;SDS011;8783;52.448;4.638;2023-11-22T02:22:50;2.45;;;1.58;;
17330;SDS011;8783;52.448;4.638;2023-11-22T02:25:18;1.85;;;1.20;;
17330;SDS011;8783;52.448;4.638;2023-11-22T02:27:44;1.92;;;1.48;;
17330;SDS011;8783;52.448;4.638;2023-11-22T02:30:09;2.17;;;1.67;;
17330;SDS011;8783;52.448;4.638;2023-11-22T02:32:36;1.70;;;1.40;;
17330;SDS011;8783;52.448;4.638;2023-11-22T02:35:02;2.08;;;1.55;;
17330;SDS011;8783;52.448;4.638;2023-11-22T02:37:32;1.77;;;1.45;;
17330;SDS011;8783;52.448;4.638;2023-11-22T02:42:29;2.00;;;1.40;;
17330;SDS011;8783;52.448;4.638;2023-11-22T02:44:55;2.08;;;1.38;;
17330;SDS011;8783;52.448;4.638;2023-11-22T02:47:21;1.65;;;1.35;;
17330;SDS011;8783;52.448;4.638;2023-11-22T02:49:47;2.58;;;1.45;;
17330;SDS011;8783;52.448;4.638;2023-11-22T02:52:13;1.48;;;1.20;;
17330;SDS011;8783;52.448;4.638;2023-11-22T02:54:41;1.33;;;1.20;;
17330;SDS011;8783;52.448;4.638;2023-11-22T02:57:12;2.00;;;1.60;;
17330;SDS011;8783;52.448;4.638;2023-11-22T02:59:41;1.08;;;0.98;;
17330;SDS011;8783;52.448;4.638;2023-11-22T03:02:07;1.60;;;1.27;;
17330;SDS011;8783;52.448;4.638;2023-11-22T03:04:33;2.05;;;1.20;;
17330;SDS011;8783;52.448;4.638;2023-11-22T03:07:01;2.33;;;1.50;;
17330;SDS011;8783;52.448;4.638;2023-11-22T03:09:27;1.98;;;1.42;;
17330;SDS011;8783;52.448;4.638;2023-11-22T03:11:53;1.58;;;1.20;;
17330;SDS011;8783;52.448;4.638;2023-11-22T03:14:19;1.77;;;1.30;;
17330;SDS011;8783;52.448;4.638;2023-11-22T03:16:45;2.08;;;1.45;;
17330;SDS011;8783;52.448;4.638;2023-11-22T03:19:10;1.88;;;1.33;;
17330;SDS011;8783;52.448;4.638;2023-11-22T03:21:38;2.42;;;1.40;;
17330;SDS011;8783;52.448;4.638;2023-11-22T03:24:06;1.70;;;1.20;;
17330;SDS011;8783;52.448;4.638;2023-11-22T03:26:33;2.13;;;1.40;;
17330;SDS011;8783;52.448;4.638;2023-11-22T03:28:59;1.90;;;1.30;;
17330;SDS011;8783;52.448;4.638;2023-11-22T03:31:25;2.03;;;1.33;;
17330;SDS011;8783;52.448;4.638;2023-11-22T03:33:51;1.50;;;1.30;;
17330;SDS011;8783;52.448;4.638;2023-11-22T03:36:17;3.25;;;1.63;;
17330;SDS011;8783;52.448;4.638;2023-11-22T03:38:43;1.45;;;1.30;;
17330;SDS011;8783;52.448;4.638;2023-11-22T03:41:09;1.42;;;1.20;;
17330;SDS011;8783;52.448;4.638;2023-11-22T03:43:35;1.55;;;1.30;;
17330;SDS011;8783;52.448;4.638;2023-11-22T03:46:01;2.33;;;1.40;;
17330;SDS011;8783;52.448;4.638;2023-11-22T03:48:27;1.35;;;1.05;;
17330;SDS011;8783;52.448;4.638;2023-11-22T03:50:53;2.42;;;1.38;;
17330;SDS011;8783;52.448;4.638;2023-11-22T03:53:19;1.70;;;1.30;;
17330;SDS011;8783;52.448;4.638;2023-11-22T03:55:46;2.03;;;1.40;;
17330;SDS011;8783;52.448;4.638;2023-11-22T03:58:13;1.40;;;1.27;;
17330;SDS011;8783;52.448;4.638;2023-11-22T04:00:38;2.42;;;1.40;;
17330;SDS011;8783;52.448;4.638;2023-11-22T04:03:04;1.73;;;1.40;;
17330;SDS011;8783;52.448;4.638;2023-11-22T04:05:32;1.58;;;1.23;;
17330;SDS011;8783;52.448;4.638;2023-11-22T04:07:58;2.03;;;1.40;;
17330;SDS011;8783;52.448;4.638;2023-11-22T04:10:23;1.50;;;1.40;;
17330;SDS011;8783;52.448;4.638;2023-11-22T04:12:50;1.85;;;1.25;;
17330;SDS011;8783;52.448;4.638;2023-11-22T04:15:15;2.80;;;1.35;;
17330;SDS011;8783;52.448;4.638;2023-11-22T04:17:41;2.85;;;1.50;;
17330;SDS011;8783;52.448;4.638;2023-11-22T04:20:07;1.50;;;1.20;;
17330;SDS011;8783;52.448;4.638;2023-11-22T04:22:34;1.70;;;1.15;;
17330;SDS011;8783;52.448;4.638;2023-11-22T04:25:00;2.17;;;1.30;;
17330;SDS011;8783;52.448;4.638;2023-11-22T04:27:27;1.13;;;1.02;;
17330;SDS011;8783;52.448;4.638;2023-11-22T04:29:52;1.95;;;1.50;;
17330;SDS011;8783;52.448;4.638;2023-11-22T04:32:18;1.77;;;1.30;;
17330;SDS011;8783;52.448;4.638;2023-11-22T04:34:45;2.20;;;1.50;;
17330;SDS011;8783;52.448;4.638;2023-11-22T04:37:10;1.85;;;1.10;;
17330;SDS011;8783;52.448;4.638;2023-11-22T04:39:36;1.35;;;1.17;;
17330;SDS011;8783;52.448;4.638;2023-11-22T04:42:01;1.83;;;1.30;;
17330;SDS011;8783;52.448;4.638;2023-11-22T04:44:27;2.30;;;1.50;;
17330;SDS011;8783;52.448;4.638;2023-11-22T04:46:53;2.08;;;1.40;;
17330;SDS011;8783;52.448;4.638;2023-11-22T04:49:19;1.83;;;1.30;;
17330;SDS011;8783;52.448;4.638;2023-11-22T04:51:44;1.90;;;1.17;;
17330;SDS011;8783;52.448;4.638;2023-11-22T04:54:10;1.83;;;1.50;;
17330;SDS011;8783;52.448;4.638;2023-11-22T04:56:36;1.70;;;1.42;;
17330;SDS011;8783;52.448;4.638;2023-11-22T04:59:02;1.90;;;1.30;;
17330;SDS011;8783;52.448;4.638;2023-11-22T05:01:32;1.30;;;1.20;;
17330;SDS011;8783;52.448;4.638;2023-11-22T05:03:58;1.83;;;1.35;;
17330;SDS011;8783;52.448;4.638;2023-11-22T05:06:24;1.42;;;1.10;;
17330;SDS011;8783;52.448;4.638;2023-11-22T05:08:51;1.63;;;1.25;;
17330;SDS011;8783;52.448;4.638;2023-11-22T05:11:17;1.48;;;1.23;;
17330;SDS011;8783;52.448;4.638;2023-11-22T05:13:42;1.63;;;1.30;;
17330;SDS011;8783;52.448;4.638;2023-11-22T05:16:08;1.65;;;1.20;;
17330;SDS011;8783;52.448;4.638;2023-11-22T05:18:34;2.08;;;1.40;;
17330;SDS011;8783;52.448;4.638;2023-11-22T05:21:03;3.22;;;1.52;;
17330;SDS011;8783;52.448;4.638;2023-11-22T05:23:29;2.28;;;1.30;;
17330;SDS011;8783;52.448;4.638;2023-11-22T05:25:56;1.40;;;1.30;;
17330;SDS011;8783;52.448;4.638;2023-11-22T05:28:22;1.40;;;1.20;;
17330;SDS011;8783;52.448;4.638;2023-11-22T05:30:48;1.50;;;1.15;;
17330;SDS011;8783;52.448;4.638;2023-11-22T05:33:13;2.95;;;1.05;;
17330;SDS011;8783;52.448;4.638;2023-11-22T05:35:39;1.65;;;1.20;;
17330;SDS011;8783;52.448;4.638;2023-11-22T05:38:06;1.50;;;1.25;;
17330;SDS011;8783;52.448;4.638;2023-11-22T05:40:32;1.50;;;1.20;;
17330;SDS011;8783;52.448;4.638;2023-11-22T05:42:58;2.25;;;1.30;;
17330;SDS011;8783;52.448;4.638;2023-11-22T05:45:24;1.45;;;1.20;;
17330;SDS011;8783;52.448;4.638;2023-11-22T05:47:52;2.03;;;1.30;;
17330;SDS011;8783;52.448;4.638;2023-11-22T05:50:18;1.20;;;1.10;;
17330;SDS011;8783;52.448;4.638;2023-11-22T05:52:44;1.30;;;1.13;;
17330;SDS011;8783;52.448;4.638;2023-11-22T05:55:10;3.83;;;1.83;;
17330;SDS011;8783;52.448;4.638;2023-11-22T05:57:39;1.92;;;1.35;;
17330;SDS011;8783;52.448;4.638;2023-11-22T06:00:06;2.05;;;1.30;;
17330;SDS011;8783;52.448;4.638;2023-11-22T06:02:32;1.83;;;1.40;;
17330;SDS011;8783;52.448;4.638;2023-11-22T06:04:58;1.48;;;1.20;;
17330;SDS011;8783;52.448;4.638;2023-11-22T06:07:24;1.40;;;1.10;;
17330;SDS011;8783;52.448;4.638;2023-11-22T06:09:52;2.63;;;1.65;;
17330;SDS011;8783;52.448;4.638;2023-11-22T06:12:18;2.33;;;1.45;;
17330;SDS011;8783;52.448;4.638;2023-11-22T06:14:47;2.55;;;2.08;;
17330;SDS011;8783;52.448;4.638;2023-11-22T06:17:12;2.78;;;2.00;;
17330;SDS011;8783;52.448;4.638;2023-11-22T06:19:39;2.75;;;1.98;;
17330;SDS011;8783;52.448;4.638;2023-11-22T06:22:06;4.03;;;2.20;;
17330;SDS011;8783;52.448;4.638;2023-11-22T06:24:32;3.47;;;2.05;;
17330;SDS011;8783;52.448;4.638;2023-11-22T06:26:58;3.70;;;2.30;;
17330;SDS011;8783;52.448;4.638;2023-11-22T06:29:24;5.00;;;2.78;;
17330;SDS011;8783;52.448;4.638;2023-11-22T06:31:49;4.35;;;2.30;;
17330;SDS011;8783;52.448;4.638;2023-11-22T06:34:15;5.18;;;2.33;;
17330;SDS011;8783;52.448;4.638;2023-11-22T06:36:41;4.30;;;2.50;;
17330;SDS011;8783;52.448;4.638;2023-11-22T06:39:07;5.32;;;2.92;;
17330;SDS011;8783;52.448;4.638;2023-11-22T06:41:34;11.30;;;4.18;;
17330;SDS011;8783;52.448;4.638;2023-11-22T06:43:59;6.35;;;3.60;;
17330;SDS011;8783;52.448;4.638;2023-11-22T06:46:25;8.80;;;4.07;;
17330;SDS011;8783;52.448;4.638;2023-11-22T06:48:51;8.60;;;3.63;;
17330;SDS011;8783;52.448;4.638;2023-11-22T06:51:23;9.80;;;3.72;;
17330;SDS011;8783;52.448;4.638;2023-11-22T06:53:49;7.80;;;4.85;;
17330;SDS011;8783;52.448;4.638;2023-11-22T06:56:16;11.68;;;6.47;;
17330;SDS011;8783;52.448;4.638;2023-11-22T06:58:42;10.73;;;6.32;;
17330;SDS011;8783;52.448;4.638;2023-11-22T07:01:08;16.42;;;7.22;;
17330;SDS011;8783;52.448;4.638;2023-11-22T07:03:35;11.65;;;7.15;;
17330;SDS011;8783;52.448;4.638;2023-11-22T07:06:01;11.13;;;6.63;;
17330;SDS011;8783;52.448;4.638;2023-11-22T07:08:27;12.75;;;6.78;;
17330;SDS011;8783;52.448;4.638;2023-11-22T07:10:53;10.45;;;7.07;;
17330;SDS011;8783;52.448;4.638;2023-11-22T07:13:19;10.63;;;7.13;;
17330;SDS011;8783;52.448;4.638;2023-11-22T07:15:44;11.25;;;6.95;;
17330;SDS011;8783;52.448;4.638;2023-11-22T07:18:10;11.00;;;7.53;;
17330;SDS011;8783;52.448;4.638;2023-11-22T07:20:36;13.37;;;7.87;;
17330;SDS011;8783;52.448;4.638;2023-11-22T07:23:04;11.55;;;7.75;;
17330;SDS011;8783;52.448;4.638;2023-11-22T07:25:29;12.40;;;6.47;;
17330;SDS011;8783;52.448;4.638;2023-11-22T07:27:56;15.15;;;6.03;;
17330;SDS011;8783;52.448;4.638;2023-11-22T07:30:22;9.05;;;6.15;;
17330;SDS011;8783;52.448;4.638;2023-11-22T07:32:49;10.95;;;5.78;;
17330;SDS011;8783;52.448;4.638;2023-11-22T07:35:16;12.25;;;5.85;;
17330;SDS011;8783;52.448;4.638;2023-11-22T07:37:44;10.15;;;5.43;;
17330;SDS011;8783;52.448;4.638;2023-11-22T07:40:11;10.35;;;5.45;;
17330;SDS011;8783;52.448;4.638;2023-11-22T07:42:38;10.48;;;4.88;;
17330;SDS011;8783;52.448;4.638;2023-11-22T07:45:05;9.13;;;5.20;;
17330;SDS011;8783;52.448;4.638;2023-11-22T07:47:31;11.98;;;5.32;;
17330;SDS011;8783;52.448;4.638;2023-11-22T07:49:56;10.13;;;5.38;;
17330;SDS011;8783;52.448;4.638;2023-11-22T07:52:25;8.90;;;4.60;;
17330;SDS011;8783;52.448;4.638;2023-11-22T07:54:57;8.88;;;4.53;;
17330;SDS011;8783;52.448;4.638;2023-11-22T07:57:24;8.55;;;4.47;;
17330;SDS011;8783;52.448;4.638;2023-11-22T07:59:50;8.20;;;4.63;;
17330;SDS011;8783;52.448;4.638;2023-11-22T08:02:19;9.52;;;4.85;;
17330;SDS011;8783;52.448;4.638;2023-11-22T08:04:45;6.72;;;4.57;;
17330;SDS011;8783;52.448;4.638;2023-11-22T08:07:13;6.43;;;4.47;;
17330;SDS011;8783;52.448;4.638;2023-11-22T08:09:39;6.95;;;3.85;;
17330;SDS011;8783;52.448;4.638;2023-11-22T08:12:08;9.40;;;4.03;;
17330;SDS011;8783;52.448;4.638;2023-11-22T08:14:36;7.57;;;3.92;;
17330;SDS011;8783;52.448;4.638;2023-11-22T08:17:02;8.63;;;3.75;;
17330;SDS011;8783;52.448;4.638;2023-11-22T08:19:28;9.95;;;4.30;;
17330;SDS011;8783;52.448;4.638;2023-11-22T08:21:54;5.88;;;3.70;;
17330;SDS011;8783;52.448;4.638;2023-11-22T08:24:20;6.55;;;3.67;;
17330;SDS011;8783;52.448;4.638;2023-11-22T08:26:46;6.50;;;3.70;;
17330;SDS011;8783;52.448;4.638;2023-11-22T08:29:11;6.90;;;3.67;;
17330;SDS011;8783;52.448;4.638;2023-11-22T08:31:37;6.43;;;3.80;;
17330;SDS011;8783;52.448;4.638;2023-11-22T08:34:03;7.13;;;3.47;;
17330;SDS011;8783;52.448;4.638;2023-11-22T08:36:32;6.45;;;3.13;;
17330;SDS011;8783;52.448;4.638;2023-11-22T08:38:59;5.40;;;2.85;;
17330;SDS011;8783;52.448;4.638;2023-11-22T08:41:26;4.50;;;3.00;;
17330;SDS011;8783;52.448;4.638;2023-11-22T08:43:55;5.05;;;2.97;;
17330;SDS011;8783;52.448;4.638;2023-11-22T08:46:22;4.32;;;2.97;;
17330;SDS011;8783;52.448;4.638;2023-11-22T08:48:48;5.38;;;3.22;;
17330;SDS011;8783;52.448;4.638;2023-11-22T08:51:15;4.82;;;3.28;;
17330;SDS011;8783;52.448;4.638;2023-11-22T08:53:42;4.85;;;3.05;;
17330;SDS011;8783;52.448;4.638;2023-11-22T08:56:09;5.93;;;3.08;;
17330;SDS011;8783;52.448;4.638;2023-11-22T08:58:36;4.32;;;2.83;;
17330;SDS011;8783;52.448;4.638;2023-11-22T09:01:05;4.95;;;2.97;;
17330;SDS011;8783;52.448;4.638;2023-11-22T09:03:32;5.35;;;3.00;;
17330;SDS011;8783;52.448;4.638;2023-11-22T09:05:58;5.65;;;3.00;;
17330;SDS011;8783;52.448;4.638;2023-11-22T09:08:25;5.47;;;2.95;;
17330;SDS011;8783;52.448;4.638;2023-11-22T09:10:51;5.25;;;2.75;;
17330;SDS011;8783;52.448;4.638;2023-11-22T09:13:16;6.50;;;3.30;;
17330;SDS011;8783;52.448;4.638;2023-11-22T09:15:44;3.75;;;2.60;;
17330;SDS011;8783;52.448;4.638;2023-11-22T09:18:10;3.17;;;2.25;;
17330;SDS011;8783;52.448;4.638;2023-11-22T09:20:37;3.88;;;2.58;;
17330;SDS011;8783;52.448;4.638;2023-11-22T09:23:03;4.35;;;2.97;;
17330;SDS011;8783;52.448;4.638;2023-11-22T09:25:29;4.35;;;2.75;;
17330;SDS011;8783;52.448;4.638;2023-11-22T09:27:56;4.05;;;2.42;;
17330;SDS011;8783;52.448;4.638;2023-11-22T09:30:26;4.72;;;2.80;;
17330;SDS011;8783;52.448;4.638;2023-11-22T09:33:00;4.75;;;2.78;;
17330;SDS011;8783;52.448;4.638;2023-11-22T09:35:40;5.05;;;2.90;;
17330;SDS011;8783;52.448;4.638;2023-11-22T09:38:07;3.13;;;2.33;;
17330;SDS011;8783;52.448;4.638;2023-11-22T09:40:40;3.33;;;2.65;;
17330;SDS011;8783;52.448;4.638;2023-11-22T09:43:07;3.40;;;2.47;;
17330;SDS011;8783;52.448;4.638;2023-11-22T09:45:33;4.93;;;2.95;;
17330;SDS011;8783;52.448;4.638;2023-11-22T09:48:00;4.55;;;2.90;;
17330;SDS011;8783;52.448;4.638;2023-11-22T09:51:02;3.83;;;2.30;;
17330;SDS011;8783;52.448;4.638;2023-11-22T09:56:08;3.88;;;2.58;;
17330;SDS011;8783;52.448;4.638;2023-11-22T09:58:41;4.25;;;2.80;;
17330;SDS011;8783;52.448;4.638;2023-11-22T10:01:12;4.43;;;2.45;;
17330;SDS011;8783;52.448;4.638;2023-11-22T10:03:38;5.32;;;2.53;;
17330;SDS011;8783;52.448;4.638;2023-11-22T10:06:04;5.70;;;2.70;;
17330;SDS011;8783;52.448;4.638;2023-11-22T10:08:31;3.45;;;2.45;;
17330;SDS011;8783;52.448;4.638;2023-11-22T10:10:57;2.50;;;2.30;;
17330;SDS011;8783;52.448;4.638;2023-11-22T10:13:23;3.85;;;2.50;;
17330;SDS011;8783;52.448;4.638;2023-11-22T10:15:49;3.63;;;2.60;;
17330;SDS011;8783;52.448;4.638;2023-11-22T10:18:15;4.20;;;2.95;;
17330;SDS011;8783;52.448;4.638;2023-11-22T10:20:43;3.03;;;2.40;;
17330;SDS011;8783;52.448;4.638;2023-11-22T10:23:12;3.85;;;2.67;;
17330;SDS011;8783;52.448;4.638;2023-11-22T10:25:46;3.90;;;2.50;;
17330;SDS011;8783;52.448;4.638;2023-11-22T10:28:16;3.92;;;2.67;;
17330;SDS011;8783;52.448;4.638;2023-11-22T10:30:43;3.88;;;2.70;;
17330;SDS011;8783;52.448;4.638;2023-11-22T10:33:13;4.95;;;2.58;;
17330;SDS011;8783;52.448;4.638;2023-11-22T10:35:46;3.53;;;2.50;;
17330;SDS011;8783;52.448;4.638;2023-11-22T10:38:13;2.53;;;2.13;;
17330;SDS011;8783;52.448;4.638;2023-11-22T10:40:40;4.10;;;2.47;;
17330;SDS011;8783;52.448;4.638;2023-11-22T10:43:09;3.33;;;2.28;;
17330;SDS011;8783;52.448;4.638;2023-11-22T10:45:36;2.67;;;2.05;;
17330;SDS011;8783;52.448;4.638;2023-11-22T10:48:02;2.97;;;2.28;;
17330;SDS011;8783;52.448;4.638;2023-11-22T10:50:28;4.22;;;2.30;;
17330;SDS011;8783;52.448;4.638;2023-11-22T10:52:56;3.88;;;2.35;;
17330;SDS011;8783;52.448;4.638;2023-11-22T10:55:26;4.05;;;2.45;;
17330;SDS011;8783;52.448;4.638;2023-11-22T10:57:53;3.25;;;2.47;;
17330;SDS011;8783;52.448;4.638;2023-11-22T11:00:21;3.95;;;2.50;;
17330;SDS011;8783;52.448;4.638;2023-11-22T11:02:51;3.17;;;2.33;;
17330;SDS011;8783;52.448;4.638;2023-11-22T11:05:21;4.03;;;2.40;;
17330;SDS011;8783;52.448;4.638;2023-11-22T11:08:07;2.38;;;2.00;;
17330;SDS011;8783;52.448;4.638;2023-11-22T11:10:43;3.40;;;2.17;;
17330;SDS011;8783;52.448;4.638;2023-11-22T11:13:09;3.65;;;2.38;;
17330;SDS011;8783;52.448;4.638;2023-11-22T11:15:36;4.50;;;2.47;;
17330;SDS011;8783;52.448;4.638;2023-11-22T11:18:08;3.13;;;2.00;;
17330;SDS011;8783;52.448;4.638;2023-11-22T11:20:44;4.10;;;2.20;;
17330;SDS011;8783;52.448;4.638;2023-11-22T11:23:19;4.05;;;2.42;;
17330;SDS011;8783;52.448;4.638;2023-11-22T11:26:08;3.75;;;2.20;;
17330;SDS011;8783;52.448;4.638;2023-11-22T11:28:44;2.88;;;2.15;;
17330;SDS011;8783;52.448;4.638;2023-11-22T11:31:12;2.92;;;2.25;;
17330;SDS011;8783;52.448;4.638;2023-11-22T11:34:12;2.53;;;1.95;;
17330;SDS011;8783;52.448;4.638;2023-11-22T11:36:31;4.97;;;3.25;;
17330;SDS011;8783;52.448;4.638;2023-11-22T11:38:58;10.52;;;3.35;;
17330;SDS011;8783;52.448;4.638;2023-11-22T11:41:29;16.80;;;3.88;;
17330;SDS011;8783;52.448;4.638;2023-11-22T11:43:57;8.43;;;2.80;;
17330;SDS011;8783;52.448;4.638;2023-11-22T11:46:24;9.93;;;3.42;;
17330;SDS011;8783;52.448;4.638;2023-11-22T11:48:52;11.48;;;2.90;;
17330;SDS011;8783;52.448;4.638;2023-11-22T11:51:23;6.90;;;2.75;;
17330;SDS011;8783;52.448;4.638;2023-11-22T11:53:50;5.50;;;2.75;;
17330;SDS011;8783;52.448;4.638;2023-11-22T11:56:16;4.47;;;2.50;;
17330;SDS011;8783;52.448;4.638;2023-11-22T11:58:45;3.10;;;2.22;;
17330;SDS011;8783;52.448;4.638;2023-11-22T12:01:13;3.80;;;2.40;;
17330;SDS011;8783;52.448;4.638;2023-11-22T12:03:39;4.47;;;2.20;;
17330;SDS011;8783;52.448;4.638;2023-11-22T12:06:06;4.78;;;2.42;;
17330;SDS011;8783;52.448;4.638;2023-11-22T12:08:32;2.50;;;2.08;;
17330;SDS011;8783;52.448;4.638;2023-11-22T12:11:04;3.45;;;2.30;;
17330;SDS011;8783;52.448;4.638;2023-11-22T12:13:33;4.22;;;2.50;;
17330;SDS011;8783;52.448;4.638;2023-11-22T12:16:00;5.03;;;2.22;;
17330;SDS011;8783;52.448;4.638;2023-11-22T12:18:28;4.30;;;2.50;;
17330;SDS011;8783;52.448;4.638;2023-11-22T12:20:54;9.25;;;2.10;;
17330;SDS011;8783;52.448;4.638;2023-11-22T12:23:21;4.60;;;2.05;;
17330;SDS011;8783;52.448;4.638;2023-11-22T12:25:48;4.50;;;1.98;;
17330;SDS011;8783;52.448;4.638;2023-11-22T12:28:16;5.47;;;2.10;;
17330;SDS011;8783;52.448;4.638;2023-11-22T12:30:43;3.28;;;2.00;;
17330;SDS011;8783;52.448;4.638;2023-11-22T12:33:10;5.95;;;2.35;;
17330;SDS011;8783;52.448;4.638;2023-11-22T12:35:42;3.20;;;1.90;;
17330;SDS011;8783;52.448;4.638;2023-11-22T12:38:09;1.88;;;1.50;;
17330;SDS011;8783;52.448;4.638;2023-11-22T12:40:35;3.83;;;1.60;;
17330;SDS011;8783;52.448;4.638;2023-11-22T12:43:01;2.30;;;1.60;;
17330;SDS011;8783;52.448;4.638;2023-11-22T12:45:29;3.53;;;1.63;;
17330;SDS011;8783;52.448;4.638;2023-11-22T12:47:55;2.60;;;1.70;;
17330;SDS011;8783;52.448;4.638;2023-11-22T12:50:36;2.60;;;1.63;;
17330;SDS011;8783;52.448;4.638;2023-11-22T12:53:10;3.25;;;1.60;;
17330;SDS011;8783;52.448;4.638;2023-11-22T12:55:46;2.42;;;1.65;;
17330;SDS011;8783;52.448;4.638;2023-11-22T12:58:14;3.65;;;1.55;;
17330;SDS011;8783;52.448;4.638;2023-11-22T13:00:49;3.58;;;1.70;;
17330;SDS011;8783;52.448;4.638;2023-11-22T13:03:15;2.17;;;1.50;;
17330;SDS011;8783;52.448;4.638;2023-11-22T13:05:44;3.03;;;1.70;;
17330;SDS011;8783;52.448;4.638;2023-11-22T13:08:11;2.28;;;1.60;;
17330;SDS011;8783;52.448;4.638;2023-11-22T13:10:41;3.55;;;1.52;;
17330;SDS011;8783;52.448;4.638;2023-11-22T13:13:09;3.58;;;1.50;;
17330;SDS011;8783;52.448;4.638;2023-11-22T13:15:34;2.17;;;1.45;;
17330;SDS011;8783;52.448;4.638;2023-11-22T13:18:00;2.67;;;1.75;;
17330;SDS011;8783;52.448;4.638;2023-11-22T13:20:27;2.30;;;1.52;;
17330;SDS011;8783;52.448;4.638;2023-11-22T13:22:53;1.63;;;1.33;;
17330;SDS011;8783;52.448;4.638;2023-11-22T13:25:19;2.17;;;1.40;;
17330;SDS011;8783;52.448;4.638;2023-11-22T13:27:46;1.90;;;1.45;;
17330;SDS011;8783;52.448;4.638;2023-11-22T13:30:13;1.85;;;1.50;;
17330;SDS011;8783;52.448;4.638;2023-11-22T13:32:40;4.10;;;1.83;;
17330;SDS011;8783;52.448;4.638;2023-11-22T13:35:08;3.17;;;1.63;;
17330;SDS011;8783;52.448;4.638;2023-11-22T13:37:39;2.10;;;1.60;;
17330;SDS011;8783;52.448;4.638;2023-11-22T13:40:15;2.15;;;1.70;;
17330;SDS011;8783;52.448;4.638;2023-11-22T13:42:45;2.35;;;1.80;;
17330;SDS011;8783;52.448;4.638;2023-11-22T13:45:12;2.33;;;1.30;;
17330;SDS011;8783;52.448;4.638;2023-11-22T13:47:42;1.40;;;1.27;;
17330;SDS011;8783;52.448;4.638;2023-11-22T13:50:13;3.17;;;1.38;;
17330;SDS011;8783;52.448;4.638;2023-11-22T13:52:43;3.25;;;1.63;;
17330;SDS011;8783;52.448;4.638;2023-11-22T13:55:11;1.92;;;1.42;;
17330;SDS011;8783;52.448;4.638;2023-11-22T13:57:38;2.33;;;1.73;;
17330;SDS011;8783;52.448;4.638;2023-11-22T14:00:04;2.72;;;1.48;;
17330;SDS011;8783;52.448;4.638;2023-11-22T14:02:43;2.97;;;1.50;;
17330;SDS011;8783;52.448;4.638;2023-11-22T14:05:10;2.10;;;1.45;;
17330;SDS011;8783;52.448;4.638;2023-11-22T14:07:37;3.08;;;1.55;;
17330;SDS011;8783;52.448;4.638;2023-11-22T14:10:03;2.25;;;1.67;;
17330;SDS011;8783;52.448;4.638;2023-11-22T14:12:31;3.85;;;1.50;;
17330;SDS011;8783;52.448;4.638;2023-11-22T14:14:57;2.30;;;1.67;;
17330;SDS011;8783;52.448;4.638;2023-11-22T14:17:24;2.13;;;1.42;;
17330;SDS011;8783;52.448;4.638;2023-11-22T14:19:50;1.83;;;1.30;;
17330;SDS011;8783;52.448;4.638;2023-11-22T14:22:17;2.88;;;1.55;;
17330;SDS011;8783;52.448;4.638;2023-11-22T14:24:43;2.47;;;1.60;;
17330;SDS011;8783;52.448;4.638;2023-11-22T14:27:10;1.85;;;1.30;;
17330;SDS011;8783;52.448;4.638;2023-11-22T14:29:37;2.22;;;1.30;;
17330;SDS011;8783;52.448;4.638;2023-11-22T14:32:03;2.40;;;1.50;;
17330;SDS011;8783;52.448;4.638;2023-11-22T14:34:29;2.45;;;1.20;;
17330;SDS011;8783;52.448;4.638;2023-11-22T14:36:54;2.60;;;1.20;;
17330;SDS011;8783;52.448;4.638;2023-11-22T14:39:20;2.88;;;1.40;;
17330;SDS011;8783;52.448;4.638;2023-11-22T14:41:46;1.80;;;1.42;;
17330;SDS011;8783;52.448;4.638;2023-11-22T14:44:11;2.53;;;1.58;;
17330;SDS011;8783;52.448;4.638;2023-11-22T14:46:39;2.35;;;1.40;;
17330;SDS011;8783;52.448;4.638;2023-11-22T14:49:04;2.85;;;1.70;;
17330;SDS011;8783;52.448;4.638;2023-11-22T14:51:30;2.67;;;1.40;;
17330;SDS011;8783;52.448;4.638;2023-11-22T14:53:58;3.30;;;1.40;;
17330;SDS011;8783;52.448;4.638;2023-11-22T14:56:24;2.42;;;1.50;;
17330;SDS011;8783;52.448;4.638;2023-11-22T14:58:49;2.42;;;1.48;;
17330;SDS011;8783;52.448;4.638;2023-11-22T15:01:22;1.55;;;1.35;;
17330;SDS011;8783;52.448;4.638;2023-11-22T15:03:51;1.88;;;1.50;;
17330;SDS011;8783;52.448;4.638;2023-11-22T15:06:19;2.53;;;1.20;;